Time;durP1;ratioP1;P1;durP2;ratioP2;P2;SDS_P1;SDS_P2;PMS_P1;PMS_P2;Temp;Humidity;BMP_temperature;BMP_pressure;BME280_temperature;BME280_humidity;BME280_pressure;Samples;Min_cycle;Max_cycle;Signal;HPM_P1;HPM_P2
2021/07/16 00:02:07;;;;;;;12.40;9.82;;;;;;;22.16;69.49;98960.19;5049488;28;20461;-67
2021/07/16 00:04:33;;;;;;;16.90;10.05;;;;;;;22.17;69.50;98961.03;5049464;28;20048;-68
2021/07/16 00:06:59;;;;;;;16.30;9.30;;;;;;;22.15;69.34;98969.38;5051041;28;20048;-67
2021/07/16 00:09:25;;;;;;;18.55;9.70;;;;;;;22.15;69.31;98968.56;5036690;28;20063;-66
2021/07/16 00:11:51;;;;;;;14.93;9.30;;;;;;;22.13;69.35;98963.41;5037085;28;20041;-67
2021/07/16 00:14:16;;;;;;;16.70;9.18;;;;;;;22.16;69.59;98964.78;5054669;28;20048;-67
2021/07/16 00:16:42;;;;;;;14.10;9.70;;;;;;;22.17;69.12;98956.41;5036634;28;20045;-68
2021/07/16 00:19:08;;;;;;;13.63;8.85;;;;;;;22.08;69.03;98940.88;5054679;28;20049;-67
2021/07/16 00:21:34;;;;;;;14.52;9.90;;;;;;;22.19;69.07;98965.09;5053413;28;20041;-68
2021/07/16 00:24:00;;;;;;;13.73;9.32;;;;;;;22.22;69.39;98970.00;5054867;28;20044;-67
2021/07/16 00:26:26;;;;;;;18.92;9.65;;;;;;;22.22;69.40;98964.59;5054453;28;20049;-67
2021/07/16 00:28:52;;;;;;;10.43;9.07;;;;;;;22.21;68.69;98962.16;5054428;28;20056;-67
2021/07/16 00:31:18;;;;;;;16.08;10.00;;;;;;;22.22;68.88;98961.91;5036608;28;20053;-67
2021/07/16 00:33:44;;;;;;;17.15;9.38;;;;;;;22.11;68.98;98941.19;5052985;28;20040;-67
2021/07/16 00:36:10;;;;;;;17.52;9.57;;;;;;;22.22;69.01;98972.72;5054290;28;20420;-68
2021/07/16 00:38:36;;;;;;;14.30;9.32;;;;;;;22.21;68.96;98962.16;5019941;28;20075;-68
2021/07/16 00:41:03;;;;;;;14.38;8.57;;;;;;;22.17;68.88;98953.69;5036601;28;20041;-68
2021/07/16 00:43:29;;;;;;;14.52;8.95;;;;;;;22.19;69.08;98957.00;5052879;28;20052;-67
2021/07/16 00:45:55;;;;;;;13.55;9.27;;;;;;;22.17;69.04;98953.69;5052738;28;20049;-67
2021/07/16 00:48:20;;;;;;;13.77;9.38;;;;;;;22.19;68.99;98964.31;5053046;28;20051;-68
2021/07/16 00:50:48;;;;;;;13.98;8.07;;;;;;;22.15;69.08;98950.44;5052961;28;20049;-67
2021/07/16 00:53:17;;;;;;;15.88;8.25;;;;;;;22.17;68.95;98959.13;5052740;28;20049;-67
2021/07/16 00:55:43;;;;;;;12.98;8.70;;;;;;;22.15;68.81;98947.75;5052601;28;20053;-67
2021/07/16 00:58:10;;;;;;;12.68;8.70;;;;;;;22.15;69.00;98946.91;5053964;28;20044;-68
2021/07/16 01:00:36;;;;;;;13.73;9.35;;;;;;;22.16;69.17;98946.66;5036091;28;20045;-68
2021/07/16 01:03:02;;;;;;;10.63;8.30;;;;;;;22.19;68.64;98945.38;5052624;28;20045;-67
2021/07/16 01:05:31;;;;;;;13.70;9.10;;;;;;;22.18;68.60;98941.84;5052560;28;20438;-66
2021/07/16 01:07:57;;;;;;;15.93;9.30;;;;;;;22.16;68.19;98941.25;5036223;28;20047;-66
2021/07/16 01:10:23;;;;;;;14.80;8.90;;;;;;;22.15;68.49;98941.50;5036086;28;20087;-67
2021/07/16 01:12:52;;;;;;;14.55;9.57;;;;;;;22.13;68.41;98938.22;5052156;28;20056;-67
2021/07/16 01:15:21;;;;;;;16.88;8.25;;;;;;;22.14;68.46;98931.75;5052165;28;20037;-67
2021/07/16 01:17:47;;;;;;;13.45;8.38;;;;;;;22.07;67.81;98928.41;5053551;28;20492;-68
2021/07/16 01:20:22;;;;;;;12.10;7.65;;;;;;;22.19;68.15;98945.38;5053485;28;20073;-67
2021/07/16 01:22:49;;;;;;;11.27;8.52;;;;;;;22.21;67.89;98941.34;5053533;28;20129;-67
2021/07/16 01:25:20;;;;;;;15.77;7.80;;;;;;;22.23;68.14;98928.38;5053123;28;20095;-68
2021/07/16 01:27:51;;;;;;;15.05;8.00;;;;;;;22.27;67.61;98939.50;5053254;28;20040;-68
2021/07/16 01:30:20;;;;;;;14.20;8.75;;;;;;;22.31;67.29;98943.38;5052139;28;20037;-67
2021/07/16 01:32:47;;;;;;;19.67;9.50;;;;;;;22.32;67.34;98934.16;5051714;28;20136;-67
2021/07/16 01:35:14;;;;;;;15.98;8.50;;;;;;;22.34;67.30;98935.53;5018983;28;20049;-68
2021/07/16 01:37:40;;;;;;;12.65;9.20;;;;;;;22.37;66.98;98929.63;5035271;28;20041;-68
2021/07/16 01:40:16;;;;;;;14.95;8.88;;;;;;;22.41;67.17;98941.63;5053171;28;20056;-67
2021/07/16 01:42:44;;;;;;;18.58;9.20;;;;;;;22.39;66.74;98938.31;5052968;28;20048;-68
2021/07/16 01:45:22;;;;;;;10.43;7.80;;;;;;;22.45;67.18;98953.56;5035404;28;20037;-67
2021/07/16 01:47:49;;;;;;;19.73;8.82;;;;;;;22.48;67.07;98957.66;5052762;28;20045;-68
2021/07/16 01:50:16;;;;;;;17.08;8.73;;;;;;;22.49;66.93;98948.47;5053079;28;20049;-68
2021/07/16 01:52:43;;;;;;;12.82;8.27;;;;;;;22.52;67.10;98948.00;5052877;28;20127;-69
2021/07/16 01:55:09;;;;;;;14.55;7.95;;;;;;;22.55;66.92;98947.50;5051472;28;20043;-69
2021/07/16 01:57:36;;;;;;;22.20;8.52;;;;;;;22.56;66.75;98941.84;5053069;28;20509;-68
2021/07/16 02:00:10;;;;;;;12.13;8.70;;;;;;;22.58;66.87;98942.41;5052879;28;20096;-67
2021/07/16 02:03:06;;;;;;;19.55;9.07;;;;;;;22.59;66.88;98949.44;5051575;28;20044;-68
2021/07/16 02:05:32;;;;;;;18.85;9.57;;;;;;;22.52;66.67;98932.59;5050536;28;20053;-67
2021/07/16 02:08:02;;;;;;;19.00;9.60;;;;;;;22.64;66.49;98946.81;5051362;28;20045;-67
2021/07/16 02:10:29;;;;;;;17.83;8.85;;;;;;;22.67;66.43;98940.91;5051302;28;20041;-67
2021/07/16 02:12:56;;;;;;;13.23;8.32;;;;;;;22.68;66.37;98950.63;5052369;28;20048;-67
2021/07/16 02:15:23;;;;;;;13.65;8.55;;;;;;;22.63;66.32;98939.75;5034913;28;20041;-68
2021/07/16 02:17:50;;;;;;;13.32;9.18;;;;;;;22.76;66.66;98949.38;5050987;28;20091;-67
2021/07/16 02:20:20;;;;;;;21.15;9.75;;;;;;;22.82;66.46;98946.47;5052314;28;20127;-67
2021/07/16 02:22:46;;;;;;;;;;;;;;;22.84;66.03;98947.06;5052838;28;20079;-67
2021/07/16 02:25:14;;;;;;;17.42;9.05;;;;;;;22.88;65.81;98945.47;5052405;28;19964;-68
2021/07/16 02:27:40;;;;;;;19.95;10.30;;;;;;;22.89;65.86;98943.59;5052342;28;20463;-67
2021/07/16 02:30:07;;;;;;;15.65;9.48;;;;;;;22.92;65.63;98940.38;5051662;28;20045;-67
2021/07/16 02:32:33;;;;;;;15.65;8.90;;;;;;;22.94;65.39;98925.50;5017956;28;20495;-67
2021/07/16 02:34:59;;;;;;;18.38;9.60;;;;;;;22.95;65.40;98935.28;5051947;28;20124;-67
2021/07/16 02:37:24;;;;;;;17.42;10.02;;;;;;;22.98;65.63;98925.81;5051998;28;20048;-67
2021/07/16 02:39:50;;;;;;;18.40;9.75;;;;;;;22.99;66.00;98936.38;5051635;28;20390;-68
2021/07/16 02:42:16;;;;;;;21.13;9.95;;;;;;;23.01;65.93;98936.13;5034055;28;20065;-68
2021/07/16 02:44:41;;;;;;;15.40;9.68;;;;;;;23.06;65.67;98933.47;5050742;28;20528;-69
2021/07/16 02:47:07;;;;;;;19.92;8.23;;;;;;;23.05;65.74;98934.53;5050940;28;20045;-67
2021/07/16 02:49:33;;;;;;;17.77;8.75;;;;;;;23.10;65.26;98945.44;5033929;28;20044;-67
2021/07/16 02:51:59;;;;;;;17.33;9.65;;;;;;;23.13;65.32;98945.75;5050561;28;20118;-67
2021/07/16 02:54:24;;;;;;;15.18;9.52;;;;;;;23.18;65.31;98944.97;5051930;28;20447;-67
2021/07/16 02:56:50;;;;;;;14.57;9.20;;;;;;;23.22;64.89;98938.78;5051773;28;20132;-68
2021/07/16 02:59:16;;;;;;;14.10;9.98;;;;;;;23.27;64.66;98933.47;5033607;28;20048;-67
2021/07/16 03:01:58;;;;;;;14.15;8.93;;;;;;;23.33;64.96;98936.19;5051784;28;20041;-68
2021/07/16 03:04:25;;;;;;;15.63;9.60;;;;;;;23.38;64.79;98936.25;5033793;28;20551;-67
2021/07/16 03:06:51;;;;;;;20.25;10.95;;;;;;;23.41;64.82;98936.56;5050210;28;20055;-68
2021/07/16 03:09:17;;;;;;;18.23;10.52;;;;;;;23.44;64.67;98935.22;5033715;28;20037;-68
2021/07/16 03:11:42;;;;;;;18.73;11.80;;;;;;;23.42;64.73;98934.69;5050353;28;20053;-68
2021/07/16 03:14:08;;;;;;;19.80;10.73;;;;;;;23.55;64.44;98955.91;5050656;28;20053;-67
2021/07/16 03:16:35;;;;;;;13.88;9.40;;;;;;;23.60;64.67;98950.56;5051139;28;20416;-67
2021/07/16 03:19:01;;;;;;;18.88;9.50;;;;;;;23.66;64.58;98944.09;5049641;28;20424;-67
2021/07/16 03:21:27;;;;;;;14.55;9.38;;;;;;;23.66;64.98;98941.38;5050057;28;20033;-68
2021/07/16 03:23:52;;;;;;;21.73;10.32;;;;;;;23.73;64.49;98958.25;5016834;28;20095;-67
2021/07/16 03:26:18;;;;;;;17.67;10.52;;;;;;;23.75;64.61;98947.97;5051030;28;20111;-67
2021/07/16 03:28:44;;;;;;;27.38;11.32;;;;;;;23.77;64.74;98959.38;5050904;28;20045;-68
2021/07/16 03:31:10;;;;;;;27.42;10.90;;;;;;;23.75;64.73;98954.22;5051245;28;20048;-67
2021/07/16 03:33:35;;;;;;;31.73;13.43;;;;;;;23.86;64.28;98960.53;5049784;28;20041;-67
2021/07/16 03:36:02;;;;;;;23.92;12.18;;;;;;;23.89;64.28;98960.00;5049502;28;20053;-67
2021/07/16 03:38:28;;;;;;;33.60;12.98;;;;;;;23.91;65.18;98968.72;5033231;28;20032;-67
2021/07/16 03:40:56;;;;;;;20.33;11.38;;;;;;;23.90;65.36;98967.06;5050770;28;20049;-67
2021/07/16 03:43:22;;;;;;;26.35;12.25;;;;;;;23.91;65.53;98964.09;5048748;28;20049;-67
2021/07/16 03:45:48;;;;;;;19.25;11.20;;;;;;;23.92;65.40;98964.91;5049725;28;20037;-67
2021/07/16 03:48:14;;;;;;;20.35;12.27;;;;;;;23.94;65.07;98968.97;5049980;28;20098;-67
2021/07/16 03:50:39;;;;;;;18.67;11.68;;;;;;;23.87;65.00;98957.56;5032865;28;20044;-67
2021/07/16 03:53:06;;;;;;;23.58;11.98;;;;;;;23.97;65.25;98968.50;5050733;28;20049;-67
2021/07/16 03:55:32;;;;;;;23.40;12.00;;;;;;;24.00;65.19;98975.31;5050642;28;20045;-67
2021/07/16 03:57:58;;;;;;;21.60;11.82;;;;;;;24.01;65.33;98968.81;5050455;28;20068;-67
2021/07/16 04:00:28;;;;;;;21.77;12.55;;;;;;;24.03;65.04;98972.88;5032715;28;20047;-68
2021/07/16 04:02:58;;;;;;;23.73;11.80;;;;;;;24.05;64.85;98970.72;5032855;28;20044;-68
2021/07/16 04:05:25;;;;;;;21.27;11.60;;;;;;;24.10;65.05;98973.50;5050335;28;20076;-68
2021/07/16 04:07:52;;;;;;;22.90;11.43;;;;;;;24.12;64.85;98973.22;5050522;28;20048;-68
2021/07/16 04:10:20;;;;;;;21.67;11.88;;;;;;;24.19;64.93;98974.63;5049502;28;20118;-68
2021/07/16 04:12:55;;;;;;;30.15;11.50;;;;;;;24.14;64.88;98955.59;5049702;28;20053;-68
2021/07/16 04:15:21;;;;;;;19.52;10.88;;;;;;;24.29;64.62;98976.59;5032658;28;20095;-68
2021/07/16 04:17:47;;;;;;;14.20;9.98;;;;;;;24.34;63.74;98973.91;5016301;28;20131;-68
2021/07/16 04:20:13;;;;;;;14.65;9.55;;;;;;;24.41;62.91;98971.78;5049601;28;20103;-67
2021/07/16 04:22:39;;;;;;;15.38;9.02;;;;;;;24.53;62.22;98981.34;5032670;28;20052;-67
2021/07/16 04:25:06;;;;;;;12.20;8.95;;;;;;;24.62;61.72;98982.47;5050151;28;20056;-67
2021/07/16 04:27:32;;;;;;;16.67;9.60;;;;;;;24.74;61.50;98979.56;5032737;28;20183;-67
2021/07/16 04:29:58;;;;;;;26.45;9.18;;;;;;;24.83;61.10;98984.22;5049306;28;20545;-67
2021/07/16 04:32:24;;;;;;;17.35;9.18;;;;;;;24.92;61.08;98987.25;5050437;28;20049;-68
2021/07/16 04:34:50;;;;;;;15.02;8.85;;;;;;;25.00;60.71;98978.59;5050336;28;20131;-68
2021/07/16 04:37:15;;;;;;;15.10;9.50;;;;;;;24.88;60.15;98942.69;5032571;28;20132;-66
2021/07/16 04:39:41;;;;;;;15.45;10.23;;;;;;;25.15;59.79;98984.09;5049077;28;20110;-67
2021/07/16 04:42:08;;;;;;;19.70;9.43;;;;;;;25.22;59.93;98981.91;5050336;28;20037;-68
2021/07/16 04:44:35;;;;;;;16.60;9.32;;;;;;;25.27;59.79;98983.81;5048920;28;20049;-68
2021/07/16 04:47:01;;;;;;;17.90;9.70;;;;;;;25.32;59.38;98975.69;5032401;28;20526;-68
2021/07/16 04:49:27;;;;;;;16.38;9.70;;;;;;;25.41;59.20;98982.25;5050561;28;20040;-68
2021/07/16 04:51:53;;;;;;;15.27;9.43;;;;;;;25.46;59.52;98977.66;5049065;28;20093;-68
2021/07/16 04:54:19;;;;;;;13.88;9.00;;;;;;;25.55;59.48;98986.09;5052194;28;20482;-69
2021/07/16 04:56:44;;;;;;;13.23;8.55;;;;;;;25.62;59.44;98984.72;5054204;28;20049;-68
2021/07/16 04:59:10;;;;;;;20.90;9.57;;;;;;;25.70;59.25;98986.91;5019780;28;20055;-67
2021/07/16 05:01:36;;;;;;;18.70;8.88;;;;;;;25.79;58.65;98989.91;5052736;28;20179;-67
2021/07/16 05:04:02;;;;;;;14.02;9.02;;;;;;;25.86;58.46;98985.81;5053729;28;20520;-67
2021/07/16 05:06:27;;;;;;;13.70;8.65;;;;;;;25.88;58.62;98974.66;5052391;28;20504;-68
2021/07/16 05:08:53;;;;;;;18.85;8.93;;;;;;;26.06;57.88;98995.94;5052741;28;20044;-68
2021/07/16 05:11:20;;;;;;;19.45;8.95;;;;;;;26.06;56.81;98974.97;5052586;28;20041;-68
2021/07/16 05:13:46;;;;;;;19.95;9.25;;;;;;;26.24;56.16;98996.19;5053775;28;20053;-68
2021/07/16 05:16:13;;;;;;;17.70;8.70;;;;;;;26.35;56.12;98995.06;5053441;28;20068;-68
2021/07/16 05:18:39;;;;;;;19.15;8.90;;;;;;;26.42;55.74;98992.88;5052137;28;20588;-68
2021/07/16 05:21:07;;;;;;;18.92;9.25;;;;;;;26.56;55.68;98997.72;5035582;28;20065;-68
2021/07/16 05:23:33;;;;;;;18.55;9.50;;;;;;;26.64;55.42;98991.75;5053349;28;20445;-68
2021/07/16 05:25:59;;;;;;;20.58;9.20;;;;;;;26.73;55.42;98982.75;5053250;28;20083;-69
2021/07/16 05:28:25;;;;;;;20.85;9.65;;;;;;;26.86;54.77;98994.97;5052145;28;20045;-68
2021/07/16 05:30:51;;;;;;;16.17;8.90;;;;;;;26.96;54.21;98997.63;5002584;28;20037;-68
2021/07/16 05:33:17;;;;;;;15.48;8.95;;;;;;;27.00;54.04;98985.88;5035685;28;20049;-68
2021/07/16 05:35:43;;;;;;;14.07;7.95;;;;;;;27.12;53.92;98991.00;5051954;28;20059;-68
2021/07/16 05:38:09;;;;;;;15.57;8.30;;;;;;;27.33;53.31;99003.47;5035060;28;20071;-67
2021/07/16 05:40:37;;;;;;;14.95;7.88;;;;;;;27.43;52.94;99004.22;5035537;28;20037;-68
2021/07/16 05:43:12;;;;;;;17.08;8.02;;;;;;;27.50;52.17;99002.00;5051922;28;20135;-67
2021/07/16 05:45:40;;;;;;;12.52;8.15;;;;;;;27.41;52.10;98972.88;5053204;28;20045;-67
2021/07/16 05:48:09;;;;;;;14.85;8.13;;;;;;;27.65;52.05;98992.88;5053167;28;20051;-68
2021/07/16 05:50:36;;;;;;;18.07;7.83;;;;;;;27.77;51.52;99004.25;5053113;28;20072;-66
2021/07/16 05:53:02;;;;;;;28.67;8.35;;;;;;;27.87;51.28;99006.94;5052880;28;20606;-67
2021/07/16 05:55:29;;;;;;;16.35;9.20;;;;;;;27.98;50.87;99008.50;5051759;28;20576;-67
2021/07/16 05:57:55;;;;;;;18.90;9.75;;;;;;;28.09;50.49;99004.59;5051905;28;20064;-68
2021/07/16 06:00:21;;;;;;;16.10;8.95;;;;;;;28.17;50.35;98997.69;5035112;28;20501;-67
2021/07/16 06:02:47;;;;;;;20.48;9.88;;;;;;;28.28;50.45;99002.75;5051359;28;20079;-68
2021/07/16 06:05:13;;;;;;;19.50;9.30;;;;;;;28.39;50.23;98998.81;5034366;28;20053;-68
2021/07/16 06:07:39;;;;;;;18.58;9.35;;;;;;;28.51;49.88;99003.94;5051593;28;20041;-69
2021/07/16 06:10:07;;;;;;;18.25;9.88;;;;;;;28.51;49.35;98985.59;5034902;28;20049;-68
2021/07/16 06:12:32;;;;;;;15.05;9.40;;;;;;;28.61;49.30;99006.56;5052563;28;20041;-68
2021/07/16 06:14:58;;;;;;;16.05;9.10;;;;;;;28.68;48.92;98996.91;5034945;28;20037;-68
2021/07/16 06:17:26;;;;;;;20.95;9.10;;;;;;;28.68;48.58;98983.22;5051363;28;20480;-68
2021/07/16 06:19:52;;;;;;;17.15;8.55;;;;;;;28.92;48.32;99005.09;5052615;28;20131;-68
2021/07/16 06:22:18;;;;;;;15.25;8.52;;;;;;;28.99;47.70;98998.16;5052298;28;20040;-67
2021/07/16 06:24:44;;;;;;;19.45;9.15;;;;;;;29.15;47.17;99007.03;5051221;28;20158;-68
2021/07/16 06:27:10;;;;;;;16.60;8.90;;;;;;;29.23;46.76;99003.63;5052400;28;20140;-68
2021/07/16 06:29:36;;;;;;;18.05;8.63;;;;;;;29.34;46.39;99007.84;5051107;28;20044;-68
2021/07/16 06:32:02;;;;;;;14.80;8.20;;;;;;;29.45;45.94;99009.31;5051005;28;20124;-67
2021/07/16 06:34:28;;;;;;;15.65;8.35;;;;;;;29.56;45.78;99003.44;5051088;28;20051;-68
2021/07/16 06:36:54;;;;;;;13.25;7.43;;;;;;;29.68;44.78;99000.25;5051161;28;20037;-68
2021/07/16 06:39:19;;;;;;;11.82;7.63;;;;;;;29.81;43.96;98993.22;5034098;28;20086;-68
2021/07/16 06:41:47;;;;;;;13.40;6.88;;;;;;;29.95;43.82;98991.34;5051896;28;20041;-69
2021/07/16 06:44:13;;;;;;;12.45;7.00;;;;;;;30.09;43.30;98998.47;5051970;28;20509;-68
2021/07/16 06:46:40;;;;;;;17.83;7.10;;;;;;;30.20;43.21;98999.97;5050749;28;20049;-68
2021/07/16 06:49:05;;;;;;;9.35;6.78;;;;;;;30.36;43.08;98995.03;5050409;28;20041;-69
2021/07/16 06:51:33;;;;;;;10.90;6.78;;;;;;;30.49;42.13;98986.03;5050217;28;20485;-68
2021/07/16 06:53:59;;;;;;;12.20;7.07;;;;;;;30.61;41.88;98983.59;5034279;28;20127;-68
2021/07/16 06:56:24;;;;;;;10.88;6.97;;;;;;;30.75;41.90;98992.66;5052119;28;20052;-68
2021/07/16 06:58:52;;;;;;;16.63;7.32;;;;;;;30.84;41.35;98983.44;5033681;28;20048;-68
2021/07/16 07:01:18;;;;;;;14.25;7.28;;;;;;;31.00;41.01;98990.22;5051519;28;20052;-68
2021/07/16 07:03:44;;;;;;;10.48;6.95;;;;;;;31.14;41.14;98984.69;5050794;28;20040;-68
2021/07/16 07:06:10;;;;;;;13.15;7.10;;;;;;;31.30;40.85;98985.22;5033809;28;20051;-68
2021/07/16 07:08:36;;;;;;;17.45;8.00;;;;;;;31.47;40.04;98977.13;5051362;28;20501;-68
2021/07/16 07:11:02;;;;;;;12.98;7.60;;;;;;;31.65;39.49;98987.94;5051322;28;20075;-68
2021/07/16 07:13:27;;;;;;;16.63;8.00;;;;;;;31.89;39.46;98984.94;5016986;28;20040;-68
2021/07/16 07:15:53;;;;;;;11.57;7.00;;;;;;;32.19;38.85;98984.97;5033968;28;20086;-68
2021/07/16 07:18:19;;;;;;;9.80;6.90;;;;;;;32.43;37.65;98976.38;5033408;28;20037;-67
2021/07/16 07:20:45;;;;;;;13.43;7.00;;;;;;;32.81;36.91;98982.22;5033477;28;20041;-68
2021/07/16 07:23:11;;;;;;;16.33;6.88;;;;;;;33.14;36.34;98972.44;5051249;28;20063;-68
2021/07/16 07:25:37;;;;;;;17.45;6.93;;;;;;;33.59;35.63;98987.59;5051009;28;20095;-69
2021/07/16 07:28:03;;;;;;;12.00;6.63;;;;;;;34.10;34.60;98982.91;5049793;28;20064;-68
2021/07/16 07:30:29;;;;;;;10.30;6.50;;;;;;;34.77;33.44;98982.19;5049939;28;20044;-68
2021/07/16 07:32:55;;;;;;;10.93;6.97;;;;;;;35.64;31.82;98974.69;5017161;28;20069;-68
2021/07/16 07:35:21;;;;;;;12.93;6.05;;;;;;;36.34;30.66;98972.91;5050988;28;20044;-68
2021/07/16 07:37:47;;;;;;;9.18;5.88;;;;;;;37.05;29.37;98985.22;5051119;28;20390;-69
2021/07/16 07:40:15;;;;;;;10.23;6.25;;;;;;;38.18;27.17;98984.72;5049605;28;20040;-68
2021/07/16 07:42:43;;;;;;;12.20;5.70;;;;;;;39.43;25.06;98973.59;5049782;28;20565;-68
2021/07/16 07:45:10;;;;;;;9.95;5.65;;;;;;;41.08;23.12;98980.38;5033627;28;20040;-68
2021/07/16 07:47:36;;;;;;;7.22;4.75;;;;;;;42.53;20.55;98981.09;5049622;28;20052;-69
2021/07/16 07:50:06;;;;;;;11.60;5.43;;;;;;;44.47;18.55;98974.66;5049537;28;20045;-67
2021/07/16 07:52:31;;;;;;;12.02;5.57;;;;;;;44.85;18.11;98981.50;5033196;28;20067;-68
2021/07/16 07:54:57;;;;;;;13.63;5.18;;;;;;;46.05;16.49;98989.25;5050884;28;20053;-68
2021/07/16 07:57:23;;;;;;;12.93;5.28;;;;;;;47.10;15.29;98975.69;5032832;28;20134;-68
2021/07/16 07:59:49;;;;;;;8.43;5.30;;;;;;;48.29;14.38;98971.47;5032980;28;20095;-68
2021/07/16 08:02:15;;;;;;;6.50;4.40;;;;;;;49.39;12.98;98976.88;5049592;28;20033;-68
2021/07/16 08:04:41;;;;;;;10.68;4.70;;;;;;;50.25;12.35;98971.84;5032898;28;20390;-69
2021/07/16 08:07:07;;;;;;;8.95;4.57;;;;;;;50.58;11.98;98981.97;5049219;28;20512;-69
2021/07/16 08:09:33;;;;;;;11.13;4.50;;;;;;;51.14;11.20;98980.56;5049683;28;20049;-69
2021/07/16 08:12:01;;;;;;;9.98;3.78;;;;;;;50.44;11.47;98968.19;5051009;28;20592;-68
2021/07/16 08:14:27;;;;;;;11.60;4.20;;;;;;;48.26;13.50;98972.28;5050582;28;20037;-68
2021/07/16 08:16:52;;;;;;;8.90;4.18;;;;;;;45.98;14.82;98966.00;5049284;28;20056;-69
2021/07/16 08:19:18;;;;;;;8.20;4.78;;;;;;;43.90;16.95;98964.50;5032711;28;20053;-68
2021/07/16 08:21:47;;;;;;;11.88;4.68;;;;;;;42.82;18.08;98943.88;5049540;28;20130;-68
2021/07/16 08:24:14;;;;;;;7.68;4.38;;;;;;;44.14;17.00;98953.38;5050253;28;20052;-69
2021/07/16 08:26:40;;;;;;;10.13;4.82;;;;;;;46.06;14.91;98953.53;5049152;28;20065;-68
2021/07/16 08:29:06;;;;;;;10.32;4.43;;;;;;;48.00;13.23;98958.97;5052170;28;20049;-68
2021/07/16 08:31:31;;;;;;;8.98;3.95;;;;;;;49.64;11.47;98953.78;5036812;28;20048;-70
2021/07/16 08:33:57;;;;;;;4.30;3.90;;;;;;;49.89;11.49;98960.53;5036719;28;20062;-69
2021/07/16 08:36:23;;;;;;;7.43;4.13;;;;;;;50.01;11.58;98962.69;5054160;28;20053;-69
2021/07/16 08:38:48;;;;;;;7.10;5.40;;;;;;;50.96;10.89;98956.78;5054440;28;20144;-69
2021/07/16 08:41:15;;;;;;;7.45;3.60;;;;;;;51.90;9.49;98967.53;5053181;28;20049;-69
2021/07/16 08:43:42;;;;;;;9.07;3.72;;;;;;;52.56;9.09;98961.81;5052720;28;20049;-69
2021/07/16 08:46:11;;;;;;;7.80;3.95;;;;;;;51.99;9.54;98956.34;5036036;28;20497;-69
2021/07/16 08:48:38;;;;;;;6.82;3.92;;;;;;;52.36;9.81;98960.44;5036415;28;20075;-68
2021/07/16 08:51:04;;;;;;;4.88;3.65;;;;;;;53.38;8.56;98961.38;5053150;28;20049;-69
2021/07/16 08:53:32;;;;;;;7.00;3.60;;;;;;;52.60;9.45;98948.28;5036320;28;20106;-69
2021/07/16 08:55:58;;;;;;;8.60;3.80;;;;;;;50.59;10.78;98950.41;5054330;28;20045;-69
2021/07/16 08:58:23;;;;;;;7.57;3.70;;;;;;;48.36;12.40;98951.66;5052716;28;20091;-68
2021/07/16 09:00:50;;;;;;;11.30;4.10;;;;;;;46.85;13.54;98938.53;5052855;28;20489;-68
2021/07/16 09:03:16;;;;;;;11.23;4.47;;;;;;;45.57;14.83;98943.31;5052519;28;20447;-68
2021/07/16 09:05:43;;;;;;;8.27;5.40;;;;;;;44.68;15.94;98936.28;5052460;28;20045;-68
2021/07/16 09:08:13;;;;;;;11.45;5.28;;;;;;;45.06;15.55;98936.63;5035916;28;20056;-69
2021/07/16 09:10:50;;;;;;;11.57;5.00;;;;;;;44.33;16.39;98915.81;5053741;28;20073;-69
2021/07/16 09:13:17;;;;;;;11.18;5.30;;;;;;;43.83;16.87;98928.03;5053667;28;20045;-68
2021/07/16 09:15:50;;;;;;;6.50;4.65;;;;;;;45.42;15.26;98935.38;5053537;28;20052;-68
2021/07/16 09:18:21;;;;;;;6.07;4.40;;;;;;;47.15;13.41;98924.56;5035855;28;20378;-69
2021/07/16 09:20:49;;;;;;;6.65;4.25;;;;;;;49.32;11.68;98929.03;5052654;28;20086;-68
2021/07/16 09:23:19;;;;;;;5.25;3.88;;;;;;;50.90;10.08;98928.25;5052402;28;20455;-68
2021/07/16 09:26:01;;;;;;;5.03;3.72;;;;;;;52.15;9.35;98930.69;5053527;28;20049;-68
2021/07/16 09:28:26;;;;;;;6.68;3.97;;;;;;;52.80;8.85;98928.97;5053558;28;20049;-69
2021/07/16 09:30:55;;;;;;;9.63;3.95;;;;;;;53.80;8.51;98930.59;5035999;28;20515;-69
2021/07/16 09:33:21;;;;;;;9.73;3.80;;;;;;;54.25;8.44;98930.06;5036011;28;20137;-69
2021/07/16 09:35:49;;;;;;;10.30;4.00;;;;;;;54.84;7.92;98932.44;5052326;28;20592;-69
2021/07/16 09:38:17;;;;;;;5.63;3.30;;;;;;;55.45;7.43;98920.81;5035379;28;20037;-67
2021/07/16 09:40:50;;;;;;;7.60;3.47;;;;;;;56.19;6.87;98917.28;5050918;28;20094;-69
2021/07/16 09:43:19;;;;;;;8.85;3.50;;;;;;;56.46;6.27;98911.44;5053201;28;20051;-68
2021/07/16 09:45:58;;;;;;;4.45;3.20;;;;;;;56.73;6.18;98913.34;5052173;28;20053;-68
2021/07/16 09:48:33;;;;;;;5.97;3.00;;;;;;;57.01;6.05;98906.19;5053383;28;20171;-69
2021/07/16 09:51:12;;;;;;;10.60;3.08;;;;;;;57.23;6.11;98912.31;5053311;28;20440;-69
2021/07/16 09:53:49;;;;;;;6.95;3.10;;;;;;;57.60;5.76;98911.53;5053168;28;20056;-68
2021/07/16 09:56:22;;;;;;;9.40;2.90;;;;;;;58.06;5.48;98910.97;5052039;28;20052;-69
2021/07/16 09:58:50;;;;;;;8.18;3.25;;;;;;;58.07;5.27;98909.72;5035423;28;20057;-69
2021/07/16 10:01:15;;;;;;;;;;;;;;;57.83;5.50;98906.19;5053632;28;20090;-69
2021/07/16 10:03:42;;;;;;;4.20;3.00;;;;;;;58.10;5.56;98908.72;5051919;28;19924;-70
2021/07/16 10:06:14;;;;;;;6.45;2.80;;;;;;;58.49;5.10;98901.53;5051893;28;20045;-69
2021/07/16 10:08:40;;;;;;;5.82;2.80;;;;;;;58.80;4.77;98907.44;5051866;28;20051;-69
2021/07/16 10:11:06;;;;;;;7.25;2.60;;;;;;;59.08;4.43;98900.78;5035483;28;20083;-67
2021/07/16 10:13:35;;;;;;;6.28;2.55;;;;;;;59.37;4.39;98893.25;5035268;28;20069;-69
2021/07/16 10:16:02;;;;;;;5.13;2.65;;;;;;;59.64;3.80;98870.59;5052677;28;20500;-69
2021/07/16 10:18:28;;;;;;;4.65;2.47;;;;;;;59.69;4.13;98883.41;5052502;28;20037;-69
2021/07/16 10:20:56;;;;;;;8.55;2.70;;;;;;;59.45;4.07;98874.31;5052660;28;20052;-69
2021/07/16 10:23:24;;;;;;;4.32;2.63;;;;;;;59.38;4.18;98863.34;5052598;28;20093;-68
2021/07/16 10:25:49;;;;;;;;;;;;;;;59.81;4.07;98877.25;5051541;28;20493;-68
2021/07/16 10:28:47;;;;;;;5.75;2.50;;;;;;;59.98;3.49;98869.59;5051028;28;20031;-68
2021/07/16 10:31:28;;;;;;;3.33;2.30;;;;;;;60.08;3.10;98855.84;5039610;28;20045;-69
2021/07/16 10:33:55;;;;;;;4.05;3.03;;;;;;;59.85;3.30;98859.84;5052373;28;20037;-69
2021/07/16 10:36:42;;;;;;;6.10;2.80;;;;;;;59.66;3.92;98847.16;5052261;28;20047;-70
2021/07/16 10:39:10;;;;;;;5.88;2.55;;;;;;;59.54;3.90;98849.13;5051238;28;20824;-68
2021/07/16 10:41:38;;;;;;;4.30;2.38;;;;;;;58.97;4.21;98833.94;5051119;28;20124;-70
2021/07/16 10:44:13;;;;;;;9.00;2.83;;;;;;;58.65;4.31;98826.53;5051304;28;20067;-68
2021/07/16 10:46:44;;;;;;;5.53;2.90;;;;;;;57.19;5.11;98823.19;5050632;28;20122;-70
2021/07/16 10:49:12;;;;;;;6.10;2.80;;;;;;;55.72;6.12;98825.88;5051915;28;20045;-70
2021/07/16 10:51:39;;;;;;;7.45;3.15;;;;;;;53.64;7.21;98814.31;5051947;28;20048;-69
2021/07/16 10:54:10;;;;;;;4.60;3.37;;;;;;;52.38;8.31;98808.44;5018060;28;20048;-69
2021/07/16 10:56:46;;;;;;;4.53;3.47;;;;;;;52.47;8.32;98814.19;5034637;28;20502;-69
2021/07/16 10:59:45;;;;;;;11.52;4.00;;;;;;;52.89;7.91;98809.88;5034137;28;20041;-70
2021/07/16 11:02:50;;;;;;;6.88;3.50;;;;;;;53.56;7.60;98804.50;5034227;28;20448;-70
2021/07/16 11:05:36;;;;;;;4.93;3.30;;;;;;;53.86;7.68;98808.56;5033141;28;20554;-70
2021/07/16 11:08:03;;;;;;;9.52;3.50;;;;;;;52.90;7.89;98788.75;5032956;28;20057;-70
2021/07/16 11:10:46;;;;;;;8.88;3.60;;;;;;;51.00;8.92;98790.56;5050689;28;20602;-70
2021/07/16 11:13:38;;;;;;;8.90;3.85;;;;;;;49.09;10.25;98788.78;5050508;28;20040;-71
2021/07/16 11:16:23;;;;;;;7.88;4.13;;;;;;;47.20;11.64;98780.66;5033836;28;20041;-69
2021/07/16 11:18:59;;;;;;;5.85;4.10;;;;;;;45.55;13.11;98779.41;5051436;28;20049;-69
2021/07/16 11:21:53;;;;;;;11.07;4.55;;;;;;;44.59;14.24;98772.53;5050339;28;20056;-68
2021/07/16 11:24:19;;;;;;;6.97;4.80;;;;;;;43.41;14.93;98772.03;5051020;28;20540;-69
2021/07/16 11:26:54;;;;;;;8.77;4.40;;;;;;;42.64;16.01;98768.91;5051301;28;20080;-67
2021/07/16 11:29:27;;;;;;;7.90;4.13;;;;;;;42.50;15.80;98777.19;5051194;28;20037;-69
2021/07/16 11:32:01;;;;;;;8.60;4.43;;;;;;;42.40;15.87;98761.16;5033467;28;20132;-68
2021/07/16 11:34:27;;;;;;;5.30;4.80;;;;;;;42.07;16.39;98764.91;5051190;28;20048;-69